SWA2174 KMCO-KMIA
Flight info
| Callsign | SWA2174 |
|---|---|
| Flight time | 0h 41m |
| Altitude | 23000 |
| Route | DDANY3 DDANY CSTAL3 |
| Aircraft | B738/M-SDE2E3FGHIRWXY/LB1 |
Departure
| Time | 2026-04-23 00:15 |
|---|---|
| Airport | Orlando International Airport (KMCO) |
Arrival
| Time | 2026-04-23 00:57 |
|---|---|
| Airport | Miami International Airport (KMIA) |
| Time | Latitude | Longitude | Altitude | Speed | Heading |
|---|---|---|---|---|---|
| 2026-04-23 00:00 | 28.43546 | -81.30389 | 100 ft | 0 kts | 95° |
| 2026-04-23 00:07 | 28.43546 | -81.30390 | 100 ft | 2 kts | 95° |
| 2026-04-23 00:07 | 28.43547 | -81.30406 | 99 ft | 2 kts | 95° |
| 2026-04-23 00:07 | 28.43549 | -81.30424 | 98 ft | 2 kts | 95° |
| 2026-04-23 00:07 | 28.43550 | -81.30443 | 100 ft | 2 kts | 85° |
| 2026-04-23 00:08 | 28.43545 | -81.30460 | 100 ft | 2 kts | 24° |
| 2026-04-23 00:08 | 28.43537 | -81.30463 | 98 ft | 1 kts | 4° |
| 2026-04-23 00:08 | 28.43536 | -81.30463 | 98 ft | 0 kts | 4° |
| 2026-04-23 00:09 | 28.43538 | -81.30463 | 98 ft | 1 kts | 6° |
| 2026-04-23 00:10 | 28.43574 | -81.30443 | 100 ft | 11 kts | 30° |
| 2026-04-23 00:10 | 28.43642 | -81.30377 | 100 ft | 15 kts | 50° |
| 2026-04-23 00:10 | 28.43712 | -81.30277 | 100 ft | 18 kts | 52° |
| 2026-04-23 00:10 | 28.43794 | -81.30158 | 100 ft | 21 kts | 52° |
| 2026-04-23 00:11 | 28.43815 | -81.30003 | 101 ft | 21 kts | 111° |
| 2026-04-23 00:11 | 28.43751 | -81.29911 | 101 ft | 11 kts | 152° |
| 2026-04-23 00:11 | 28.43732 | -81.29902 | 101 ft | 0 kts | 161° |
| 2026-04-23 00:11 | 28.43716 | -81.29897 | 101 ft | 9 kts | 167° |
| 2026-04-23 00:12 | 28.43600 | -81.29888 | 100 ft | 18 kts | 179° |
| 2026-04-23 00:12 | 28.43551 | -81.29825 | 103 ft | 11 kts | 94° |
| 2026-04-23 00:12 | 28.43551 | -81.29737 | 102 ft | 11 kts | 89° |
| 2026-04-23 00:12 | 28.43551 | -81.29697 | 102 ft | 0 kts | 89° |
| 2026-04-23 00:13 | 28.43552 | -81.29650 | 102 ft | 14 kts | 89° |
| 2026-04-23 00:13 | 28.43499 | -81.29588 | 104 ft | 13 kts | 178° |
| 2026-04-23 00:14 | 28.43487 | -81.29587 | 104 ft | 0 kts | 179° |
| 2026-04-23 00:14 | 28.43472 | -81.29587 | 105 ft | 17 kts | 179° |
| 2026-04-23 00:15 | 28.43109 | -81.29582 | 105 ft | 88 kts | 179° |
| 2026-04-23 00:15 | 28.42278 | -81.29574 | 98 ft | 148 kts | 179° |
| 2026-04-23 00:15 | 28.41134 | -81.29585 | 371 ft | 175 kts | 178° |
| 2026-04-23 00:15 | 28.39863 | -81.29601 | 919 ft | 192 kts | 176° |
| 2026-04-23 00:16 | 28.38479 | -81.29315 | 1176 ft | 214 kts | 155° |
| 2026-04-23 00:16 | 28.37069 | -81.28488 | 1476 ft | 240 kts | 145° |
| 2026-04-23 00:16 | 28.35650 | -81.27437 | 2382 ft | 243 kts | 144° |
| 2026-04-23 00:16 | 28.34287 | -81.26295 | 3369 ft | 247 kts | 131° |
| 2026-04-23 00:17 | 28.33438 | -81.24601 | 4256 ft | 250 kts | 108° |
| 2026-04-23 00:17 | 28.33026 | -81.22657 | 5154 ft | 256 kts | 99° |
| 2026-04-23 00:17 | 28.32747 | -81.20648 | 6058 ft | 262 kts | 98° |
| 2026-04-23 00:17 | 28.32480 | -81.18546 | 6764 ft | 274 kts | 97° |
| 2026-04-23 00:18 | 28.32297 | -81.17119 | 7310 ft | 278 kts | 98° |
| 2026-04-23 00:18 | 28.32011 | -81.14937 | 8211 ft | 281 kts | 99° |
| 2026-04-23 00:18 | 28.31714 | -81.12729 | 9096 ft | 286 kts | 99° |
| 2026-04-23 00:18 | 28.31405 | -81.10481 | 9961 ft | 291 kts | 100° |
| 2026-04-23 00:19 | 28.31085 | -81.08186 | 10659 ft | 302 kts | 100° |
| 2026-04-23 00:19 | 28.30739 | -81.05731 | 10864 ft | 329 kts | 99° |
| 2026-04-23 00:19 | 28.30363 | -81.03075 | 11131 ft | 351 kts | 100° |
| 2026-04-23 00:19 | 28.29966 | -81.00282 | 11696 ft | 362 kts | 99° |
| 2026-04-23 00:20 | 28.29563 | -80.97444 | 12432 ft | 368 kts | 99° |
| 2026-04-23 00:20 | 28.29152 | -80.94562 | 13194 ft | 373 kts | 99° |
| 2026-04-23 00:20 | 28.28734 | -80.91632 | 13908 ft | 379 kts | 99° |
| 2026-04-23 00:20 | 28.28310 | -80.88675 | 14601 ft | 382 kts | 99° |
| 2026-04-23 00:21 | 28.27526 | -80.84753 | 15455 ft | 389 kts | 110° |
| 2026-04-23 00:21 | 28.26852 | -80.82816 | 15882 ft | 392 kts | 114° |
| 2026-04-23 00:21 | 28.25777 | -80.79944 | 16520 ft | 398 kts | 114° |
| 2026-04-23 00:21 | 28.24695 | -80.77033 | 17149 ft | 403 kts | 114° |
| 2026-04-23 00:22 | 28.23619 | -80.74072 | 17756 ft | 409 kts | 113° |
| 2026-04-23 00:22 | 28.22534 | -80.71115 | 18366 ft | 414 kts | 117° |
| 2026-04-23 00:22 | 28.20869 | -80.68467 | 18856 ft | 414 kts | 140° |
| 2026-04-23 00:22 | 28.18531 | -80.66592 | 19453 ft | 410 kts | 158° |
| 2026-04-23 00:23 | 28.15848 | -80.65540 | 20039 ft | 408 kts | 169° |
| 2026-04-23 00:23 | 28.13092 | -80.64726 | 20591 ft | 412 kts | 170° |
| 2026-04-23 00:23 | 28.10295 | -80.63931 | 21108 ft | 416 kts | 170° |
| 2026-04-23 00:23 | 28.07468 | -80.63126 | 21626 ft | 419 kts | 170° |
| 2026-04-23 00:24 | 28.04630 | -80.62304 | 22099 ft | 424 kts | 170° |
| 2026-04-23 00:24 | 28.01755 | -80.61459 | 22553 ft | 428 kts | 170° |
| 2026-04-23 00:24 | 27.98860 | -80.60598 | 23034 ft | 432 kts | 170° |
| 2026-04-23 00:24 | 27.95948 | -80.59727 | 23171 ft | 436 kts | 170° |
| 2026-04-23 00:25 | 27.93061 | -80.58860 | 23187 ft | 433 kts | 170° |
| 2026-04-23 00:25 | 27.90148 | -80.57984 | 23189 ft | 432 kts | 170° |
| 2026-04-23 00:25 | 27.87243 | -80.57112 | 23197 ft | 432 kts | 170° |
| 2026-04-23 00:25 | 27.84334 | -80.56241 | 23202 ft | 433 kts | 170° |
| 2026-04-23 00:26 | 27.81413 | -80.55368 | 23199 ft | 434 kts | 170° |
| 2026-04-23 00:26 | 27.78494 | -80.54495 | 23198 ft | 435 kts | 170° |
| 2026-04-23 00:26 | 27.75568 | -80.53621 | 23187 ft | 434 kts | 170° |
| 2026-04-23 00:26 | 27.72643 | -80.52747 | 23173 ft | 434 kts | 170° |
| 2026-04-23 00:27 | 27.69727 | -80.51877 | 23200 ft | 434 kts | 170° |
| 2026-04-23 00:27 | 27.66810 | -80.51007 | 23198 ft | 433 kts | 170° |
| 2026-04-23 00:27 | 27.64050 | -80.50116 | 23195 ft | 435 kts | 167° |
| 2026-04-23 00:27 | 27.61210 | -80.49033 | 23201 ft | 436 kts | 165° |
| 2026-04-23 00:28 | 27.58357 | -80.47871 | 23190 ft | 436 kts | 164° |
| 2026-04-23 00:28 | 27.55505 | -80.46694 | 23185 ft | 436 kts | 164° |
| 2026-04-23 00:28 | 27.52658 | -80.45528 | 23192 ft | 435 kts | 165° |
| 2026-04-23 00:28 | 27.49807 | -80.44376 | 23184 ft | 435 kts | 165° |
| 2026-04-23 00:29 | 27.46951 | -80.43235 | 23181 ft | 435 kts | 165° |
| 2026-04-23 00:29 | 27.44096 | -80.42102 | 23188 ft | 435 kts | 165° |
| 2026-04-23 00:29 | 27.41252 | -80.40978 | 23178 ft | 435 kts | 165° |
| 2026-04-23 00:29 | 27.38394 | -80.39850 | 23182 ft | 435 kts | 165° |
| 2026-04-23 00:30 | 27.35706 | -80.38789 | 23174 ft | 435 kts | 165° |
| 2026-04-23 00:30 | 27.32850 | -80.37663 | 23184 ft | 435 kts | 165° |
| 2026-04-23 00:30 | 27.29993 | -80.36535 | 23178 ft | 435 kts | 165° |
| 2026-04-23 00:30 | 27.27139 | -80.35409 | 23179 ft | 435 kts | 165° |
| 2026-04-23 00:31 | 27.24283 | -80.34283 | 23180 ft | 435 kts | 165° |
| 2026-04-23 00:31 | 27.21425 | -80.33158 | 23178 ft | 435 kts | 165° |
| 2026-04-23 00:31 | 27.18564 | -80.32038 | 23173 ft | 435 kts | 165° |
| 2026-04-23 00:31 | 27.15705 | -80.30927 | 23174 ft | 435 kts | 165° |
| 2026-04-23 00:32 | 27.12841 | -80.29817 | 23154 ft | 435 kts | 165° |
| 2026-04-23 00:32 | 27.09978 | -80.28708 | 23169 ft | 435 kts | 165° |
| 2026-04-23 00:32 | 27.07264 | -80.27657 | 23178 ft | 435 kts | 165° |
| 2026-04-23 00:32 | 27.04402 | -80.26547 | 23176 ft | 435 kts | 165° |
| 2026-04-23 00:33 | 27.01538 | -80.25437 | 23184 ft | 435 kts | 165° |
| 2026-04-23 00:33 | 26.98677 | -80.24328 | 23182 ft | 435 kts | 165° |
| 2026-04-23 00:33 | 26.95814 | -80.23218 | 23170 ft | 432 kts | 165° |
| 2026-04-23 00:33 | 26.93008 | -80.22129 | 22913 ft | 422 kts | 165° |
| 2026-04-23 00:34 | 26.90275 | -80.21069 | 22837 ft | 409 kts | 165° |
| 2026-04-23 00:34 | 26.87655 | -80.20055 | 22622 ft | 400 kts | 166° |
| 2026-04-23 00:34 | 26.85032 | -80.19050 | 22215 ft | 397 kts | 166° |
| 2026-04-23 00:34 | 26.82417 | -80.18078 | 21749 ft | 395 kts | 166° |
| 2026-04-23 00:35 | 26.79804 | -80.17117 | 21316 ft | 394 kts | 166° |
| 2026-04-23 00:35 | 26.77208 | -80.16161 | 20935 ft | 391 kts | 166° |
| 2026-04-23 00:35 | 26.74641 | -80.15211 | 20589 ft | 387 kts | 166° |
| 2026-04-23 00:35 | 26.72095 | -80.14268 | 20218 ft | 384 kts | 166° |
| 2026-04-23 00:36 | 26.69546 | -80.13402 | 19830 ft | 380 kts | 169° |
| 2026-04-23 00:36 | 26.66982 | -80.12717 | 19465 ft | 377 kts | 171° |
| 2026-04-23 00:36 | 26.64434 | -80.12071 | 19104 ft | 375 kts | 171° |
| 2026-04-23 00:36 | 26.61903 | -80.11409 | 18749 ft | 372 kts | 170° |
| 2026-04-23 00:37 | 26.59388 | -80.10737 | 18371 ft | 370 kts | 170° |
| 2026-04-23 00:37 | 26.56886 | -80.10100 | 17924 ft | 367 kts | 171° |
| 2026-04-23 00:37 | 26.54399 | -80.09485 | 17502 ft | 365 kts | 171° |
| 2026-04-23 00:37 | 26.51927 | -80.08874 | 17087 ft | 363 kts | 171° |
| 2026-04-23 00:38 | 26.49470 | -80.08264 | 16659 ft | 361 kts | 171° |
| 2026-04-23 00:38 | 26.47021 | -80.07653 | 16239 ft | 359 kts | 170° |
| 2026-04-23 00:38 | 26.44606 | -80.07075 | 15565 ft | 363 kts | 172° |
| 2026-04-23 00:38 | 26.42089 | -80.06543 | 14641 ft | 369 kts | 172° |
| 2026-04-23 00:39 | 26.39586 | -80.06028 | 14222 ft | 358 kts | 172° |
| 2026-04-23 00:39 | 26.37219 | -80.05455 | 14019 ft | 341 kts | 168° |
| 2026-04-23 00:39 | 26.34951 | -80.04816 | 13647 ft | 331 kts | 168° |
| 2026-04-23 00:39 | 26.32756 | -80.04192 | 13298 ft | 320 kts | 168° |
| 2026-04-23 00:40 | 26.30623 | -80.03592 | 12879 ft | 313 kts | 168° |
| 2026-04-23 00:40 | 26.28513 | -80.03010 | 12402 ft | 310 kts | 168° |
| 2026-04-23 00:40 | 26.26449 | -80.02448 | 12207 ft | 299 kts | 171° |
| 2026-04-23 00:40 | 26.24410 | -80.02353 | 12067 ft | 294 kts | 193° |
| 2026-04-23 00:41 | 26.22381 | -80.02813 | 11985 ft | 301 kts | 194° |
| 2026-04-23 00:41 | 26.20316 | -80.03305 | 11822 ft | 304 kts | 194° |
| 2026-04-23 00:41 | 26.18247 | -80.03794 | 11703 ft | 302 kts | 196° |
| 2026-04-23 00:41 | 26.16196 | -80.04275 | 11566 ft | 300 kts | 193° |
| 2026-04-23 00:42 | 26.14155 | -80.04748 | 11440 ft | 298 kts | 195° |
| 2026-04-23 00:42 | 26.12131 | -80.05212 | 11314 ft | 297 kts | 195° |
| 2026-04-23 00:42 | 26.10109 | -80.05674 | 11190 ft | 296 kts | 194° |
| 2026-04-23 00:42 | 26.08096 | -80.06133 | 11065 ft | 295 kts | 193° |
| 2026-04-23 00:43 | 26.06086 | -80.06605 | 10877 ft | 297 kts | 195° |
| 2026-04-23 00:43 | 26.04080 | -80.07124 | 10647 ft | 300 kts | 195° |
| 2026-04-23 00:43 | 26.02040 | -80.07662 | 10401 ft | 303 kts | 194° |
| 2026-04-23 00:43 | 26.00005 | -80.08197 | 10149 ft | 297 kts | 194° |
| 2026-04-23 00:44 | 25.98036 | -80.08710 | 9956 ft | 283 kts | 194° |
| 2026-04-23 00:44 | 25.96144 | -80.09201 | 9623 ft | 277 kts | 194° |
| 2026-04-23 00:44 | 25.94292 | -80.09682 | 9405 ft | 271 kts | 194° |
| 2026-04-23 00:44 | 25.92495 | -80.10281 | 9153 ft | 269 kts | 210° |
| 2026-04-23 00:45 | 25.91077 | -80.11606 | 8972 ft | 268 kts | 228° |
| 2026-04-23 00:45 | 25.89809 | -80.13173 | 8751 ft | 276 kts | 229° |
| 2026-04-23 00:45 | 25.88560 | -80.14809 | 8498 ft | 279 kts | 237° |
| 2026-04-23 00:45 | 25.87906 | -80.16789 | 8255 ft | 271 kts | 263° |
| 2026-04-23 00:46 | 25.87766 | -80.18863 | 8039 ft | 268 kts | 269° |
| 2026-04-23 00:46 | 25.87739 | -80.20949 | 7695 ft | 272 kts | 270° |
| 2026-04-23 00:46 | 25.87706 | -80.23058 | 7371 ft | 274 kts | 269° |
| 2026-04-23 00:46 | 25.87655 | -80.25178 | 7032 ft | 276 kts | 269° |
| 2026-04-23 00:47 | 25.87594 | -80.27269 | 6681 ft | 272 kts | 269° |
| 2026-04-23 00:47 | 25.87732 | -80.29331 | 6301 ft | 267 kts | 290° |
| 2026-04-23 00:47 | 25.88542 | -80.31149 | 5989 ft | 258 kts | 300° |
| 2026-04-23 00:47 | 25.89407 | -80.32884 | 5642 ft | 254 kts | 300° |
| 2026-04-23 00:48 | 25.90250 | -80.34595 | 5328 ft | 252 kts | 300° |
| 2026-04-23 00:48 | 25.91088 | -80.36306 | 5018 ft | 253 kts | 300° |
| 2026-04-23 00:48 | 25.91927 | -80.38027 | 4696 ft | 253 kts | 300° |
| 2026-04-23 00:48 | 25.92762 | -80.39744 | 4409 ft | 251 kts | 300° |
| 2026-04-23 00:49 | 25.93561 | -80.41444 | 4101 ft | 246 kts | 292° |
| 2026-04-23 00:49 | 25.93772 | -80.43273 | 4043 ft | 234 kts | 267° |
| 2026-04-23 00:49 | 25.93726 | -80.45039 | 4015 ft | 230 kts | 269° |
| 2026-04-23 00:49 | 25.93692 | -80.46851 | 4025 ft | 238 kts | 268° |
| 2026-04-23 00:50 | 25.93629 | -80.48701 | 4024 ft | 241 kts | 267° |
| 2026-04-23 00:50 | 25.93540 | -80.50544 | 4007 ft | 236 kts | 267° |
| 2026-04-23 00:50 | 25.93247 | -80.52314 | 3984 ft | 233 kts | 242° |
| 2026-04-23 00:50 | 25.92228 | -80.53665 | 3853 ft | 225 kts | 210° |
| 2026-04-23 00:51 | 25.90804 | -80.54192 | 3352 ft | 214 kts | 175° |
| 2026-04-23 00:51 | 25.89460 | -80.53704 | 3126 ft | 201 kts | 137° |
| 2026-04-23 00:51 | 25.88721 | -80.52488 | 3027 ft | 184 kts | 101° |
| 2026-04-23 00:51 | 25.88778 | -80.51138 | 3025 ft | 172 kts | 82° |
| 2026-04-23 00:52 | 25.88937 | -80.49833 | 3021 ft | 170 kts | 83° |
| 2026-04-23 00:52 | 25.88987 | -80.48531 | 3001 ft | 173 kts | 102° |
| 2026-04-23 00:52 | 25.88521 | -80.47304 | 3016 ft | 175 kts | 115° |
| 2026-04-23 00:52 | 25.87971 | -80.46090 | 3011 ft | 176 kts | 115° |
| 2026-04-23 00:53 | 25.87393 | -80.44903 | 2924 ft | 172 kts | 116° |
| 2026-04-23 00:53 | 25.86826 | -80.43778 | 2720 ft | 161 kts | 117° |
| 2026-04-23 00:53 | 25.86292 | -80.42732 | 2538 ft | 152 kts | 116° |
| 2026-04-23 00:53 | 25.85775 | -80.41715 | 2331 ft | 148 kts | 116° |
| 2026-04-23 00:54 | 25.85279 | -80.40743 | 2122 ft | 141 kts | 116° |
| 2026-04-23 00:54 | 25.84803 | -80.39807 | 1936 ft | 138 kts | 116° |
| 2026-04-23 00:54 | 25.84328 | -80.38873 | 1759 ft | 140 kts | 117° |
| 2026-04-23 00:54 | 25.83849 | -80.37931 | 1570 ft | 141 kts | 117° |
| 2026-04-23 00:55 | 25.83369 | -80.36988 | 1383 ft | 140 kts | 116° |
| 2026-04-23 00:55 | 25.82896 | -80.36058 | 1200 ft | 138 kts | 116° |
| 2026-04-23 00:55 | 25.82427 | -80.35137 | 1020 ft | 136 kts | 116° |
| 2026-04-23 00:55 | 25.81960 | -80.34220 | 838 ft | 137 kts | 116° |
| 2026-04-23 00:56 | 25.81497 | -80.33310 | 689 ft | 134 kts | 115° |
| 2026-04-23 00:56 | 25.81048 | -80.32385 | 543 ft | 137 kts | 115° |
| 2026-04-23 00:56 | 25.80575 | -80.31481 | 356 ft | 139 kts | 117° |
| 2026-04-23 00:56 | 25.80086 | -80.30524 | 175 ft | 139 kts | 119° |
| 2026-04-23 00:57 | 25.79633 | -80.29650 | 29 ft | 120 kts | 118° |
| 2026-04-23 00:57 | 25.79321 | -80.29045 | 18 ft | 43 kts | 119° |
| 2026-04-23 00:57 | 25.79277 | -80.28958 | 17 ft | 11 kts | 120° |
| 2026-04-23 00:57 | 25.79215 | -80.28836 | 16 ft | 24 kts | 120° |
| 2026-04-23 00:58 | 25.79125 | -80.28645 | 18 ft | 26 kts | 114° |
| 2026-04-23 00:58 | 25.79110 | -80.28480 | 19 ft | 13 kts | 72° |
| 2026-04-23 00:58 | 25.79139 | -80.28425 | 21 ft | 8 kts | 54° |
| 2026-04-23 00:58 | 25.79158 | -80.28365 | 22 ft | 10 kts | 94° |
| 2026-04-23 00:59 | 25.79121 | -80.28286 | 26 ft | 13 kts | 119° |
| 2026-04-23 00:59 | 25.79078 | -80.28201 | 28 ft | 13 kts | 119° |
| 2026-04-23 00:59 | 25.79033 | -80.28115 | 25 ft | 14 kts | 120° |
| 2026-04-23 00:59 | 25.78983 | -80.28015 | 26 ft | 16 kts | 118° |
| 2026-04-23 01:00 | 25.78940 | -80.27922 | 26 ft | 12 kts | 101° |
| 2026-04-23 01:00 | 25.78975 | -80.27832 | 23 ft | 15 kts | 25° |
| 2026-04-23 01:00 | 25.79056 | -80.27800 | 27 ft | 10 kts | 350° |
| 2026-04-23 01:00 | 25.79101 | -80.27849 | 29 ft | 9 kts | 296° |
| 2026-04-23 01:01 | 25.79105 | -80.27856 | 26 ft | 0 kts | 296° |